EDT,Max TemperatureF,Mean TemperatureF,Min TemperatureF,Max Dew PointF,MeanDew PointF,Min DewpointF,Max Humidity, Mean Humidity, Min Humidity, Max Sea Level PressureIn, Mean Sea Level PressureIn, Min Sea Level PressureIn, Max VisibilityMiles, Mean VisibilityMiles, Min VisibilityMiles, Max Wind SpeedMPH, Mean Wind SpeedMPH, Max Gust SpeedMPH,PrecipitationIn, CloudCover, Events, WindDirDegrees
2013-5-1,71,52,33,42,33,26,92,55,21,30.48,30.42,30.35,10,10,10,12,2,,0.00,0,Rain,143
2013-5-2,75,56,36,44,39,34,97,58,26,30.47,30.39,30.31,10,10,10,6,1,,0.00,0,Rain,178
2013-5-3,70,58,44,43,36,31,79,47,27,30.45,30.39,30.32,10,10,10,9,4,,0.00,2,Rain,99
2013-5-4,73,55,37,45,41,34,96,63,31,30.37,30.28,30.19,10,10,10,14,2,24,0.00,0,Rain,102
2013-5-5,70,52,35,42,38,34,100,75,27,30.30,30.26,30.18,10,7,0,12,2,17,0.00,3,Fog,88
2013-5-6,73,52,33,51,40,32,96,79,42,30.27,30.21,30.12,10,7,0,9,1,,0.00,3,Fog-Rain,157
2013-5-7,73,57,41,56,47,39,100,80,43,30.17,30.13,30.07,10,7,0,9,1,16,0.00,3,Fog-Rain,112
2013-5-8,68,60,53,62,58,52,100,87,73,30.09,30.02,29.96,10,7,0,13,5,20,1.10,7,Fog-Rain-Thunderstorm,53
2013-5-9,68,58,51,56,53,49,100,91,60,30.00,29.95,29.89,10,4,0,7,0,,0.04,6,Fog-Rain,74
2013-5-10,78,62,48,59,54,47,100,75,43,30.02,29.96,29.89,10,7,0,6,1,,0.00,3,Fog,200
2013-5-11,70,65,57,63,60,55,94,86,73,29.90,29.77,29.70,10,8,3,9,3,18,0.20,6,Rain,207
2013-5-12,64,54,46,55,38,24,93,51,26,29.93,29.75,29.68,10,10,7,10,5,23,0.00,2,,260
2013-5-13,55,44,35,32,28,21,85,56,32,30.13,30.03,29.95,10,10,10,10,4,17,0.00,3,,264
2013-5-14,60,45,30,33,28,21,92,57,23,30.14,30.09,30.02,10,10,10,9,2,,0.00,0,,326
2013-5-15,72,54,36,56,45,32,89,68,50,30.07,29.86,29.65,10,10,10,10,2,26,0.00,3,Rain,204
2013-5-16,82,64,46,56,47,36,100,76,20,29.86,29.76,29.72,10,4,0,9,1,17,0.01,1,Fog-Rain,260
2013-5-17,73,62,48,44,39,35,80,47,28,30.22,30.07,29.89,10,10,10,9,5,17,0.00,0,Rain,339
2013-5-18,66,53,42,53,47,40,93,74,48,30.30,30.27,30.22,10,10,10,7,1,,0.00,5,Rain,198
2013-5-19,61,58,55,55,54,52,94,87,78,30.30,30.25,30.18,10,8,2,8,1,,0.06,8,Rain,157
2013-5-20,80,68,57,65,59,55,96,84,58,30.18,30.07,29.96,10,7,1,7,1,,0.00,6,Rain,205
2013-5-21,87,72,57,70,63,57,100,84,53,29.98,29.93,29.82,10,4,0,10,2,20,0.00,4,Fog-Rain,217
2013-5-22,84,73,62,70,66,60,100,83,60,29.91,29.86,29.80,10,6,1,9,2,17,0.00,4,Rain,207
2013-5-23,75,67,61,70,65,60,97,88,78,29.88,29.82,29.75,10,7,1,12,3,17,0.72,7,Rain-Thunderstorm,217
2013-5-24,62,54,44,61,49,38,100,85,73,29.99,29.83,29.70,10,8,2,10,3,26,0.53,8,Rain,334
2013-5-25,55,49,44,40,38,35,82,70,53,30.04,29.97,29.93,10,10,10,13,8,30,0.07,8,Rain,336
2013-5-26,66,54,41,38,35,31,86,53,31,30.22,30.06,29.98,10,10,10,16,8,30,0.00,1,,297
2013-5-27,75,54,35,45,38,33,93,59,24,30.25,30.19,30.12,10,10,10,9,2,16,0.00,0,Rain,237
2013-5-28,61,52,42,56,52,41,97,91,64,30.22,30.18,30.13,10,5,0,5,0,,0.54,6,Fog-Rain,24
2013-5-29,82,70,57,68,60,55,100,88,56,30.13,30.07,29.99,10,4,0,8,1,18,0.01,5,Fog,223
2013-5-30,90,76,62,67,63,61,100,80,42,30.13,30.09,30.06,10,6,1,9,1,,0.00,0,,217
2013-5-31,91,76,60,69,63,59,100,78,38,30.14,30.08,29.99,10,6,2,9,1,16,0.00,0,,214